createdAt,value
2024-02-19T00:02:16.049Z,101221.94
2024-02-19T00:04:42.578Z,101219.31
2024-02-19T00:07:09.149Z,101225.44
2024-02-19T00:09:35.576Z,101221.94
2024-02-19T00:12:01.987Z,101219.31
2024-02-19T00:14:28.382Z,101216.63
2024-02-19T00:16:54.830Z,101221.94
2024-02-19T00:19:22.610Z,101227.16
2024-02-19T00:21:49.288Z,101226.25
2024-02-19T00:24:15.766Z,101231.53
2024-02-19T00:26:42.274Z,101235.03
2024-02-19T00:29:08.963Z,101235.88
2024-02-19T00:31:35.616Z,101231.50
2024-02-19T00:34:02.194Z,101241.16
2024-02-19T00:36:29.358Z,101230.59
2024-02-19T00:38:55.744Z,101236.75
2024-02-19T00:41:23.163Z,101240.22
2024-02-19T00:43:49.810Z,101240.19
2024-02-19T00:46:16.472Z,101234.94
2024-02-19T00:48:43.158Z,101235.75
2024-02-19T00:51:09.789Z,101241.88
2024-02-19T00:53:38.421Z,101240.13
2024-02-19T00:56:04.988Z,101243.63
2024-02-19T00:58:31.394Z,101240.06
2024-02-19T01:00:59.587Z,101244.53
2024-02-19T01:03:26.926Z,101249.78
2024-02-19T01:05:53.377Z,101244.53
2024-02-19T01:08:20.407Z,101245.31
2024-02-19T01:10:46.901Z,101252.31
2024-02-19T01:13:14.176Z,101248.81
2024-02-19T01:15:40.660Z,101253.16
2024-02-19T01:18:07.123Z,101264.47
2024-02-19T01:20:33.588Z,101259.16
2024-02-19T01:23:00.198Z,101256.56
2024-02-19T01:25:26.750Z,101266.13
2024-02-19T01:27:53.599Z,101272.19
2024-02-19T01:30:20.123Z,101266.03
2024-02-19T01:32:46.478Z,101265.94
2024-02-19T01:35:13.193Z,101268.47
2024-02-19T01:37:40.993Z,101275.53
2024-02-19T01:40:10.865Z,101267.59
2024-02-19T01:42:37.794Z,101274.53
2024-02-19T01:45:06.710Z,101269.22
2024-02-19T01:47:33.916Z,101270.06
2024-02-19T01:50:00.433Z,101276.19
2024-02-19T01:52:27.263Z,101282.31
2024-02-19T01:54:53.989Z,101290.97
2024-02-19T01:57:20.655Z,101290.06
2024-02-19T01:59:48.845Z,101292.59
2024-02-19T02:02:15.564Z,101307.44
2024-02-19T02:04:41.975Z,101288.91
2024-02-19T02:07:08.687Z,101289.72
2024-02-19T02:09:35.192Z,101293.13
2024-02-19T02:12:01.629Z,101306.19
2024-02-19T02:14:28.041Z,101309.69
2024-02-19T02:16:54.407Z,101311.41
2024-02-19T02:19:21.002Z,101316.53
2024-02-19T02:21:47.547Z,101309.53
2024-02-19T02:24:14.141Z,101316.47
2024-02-19T02:26:41.067Z,101320.69
2024-02-19T02:29:07.653Z,101331.13
2024-02-19T02:31:34.488Z,101330.25
2024-02-19T02:34:01.111Z,101326.88
2024-02-19T02:36:27.635Z,101331.25
2024-02-19T02:38:53.984Z,101332.03
2024-02-19T02:41:20.344Z,101337.16
2024-02-19T02:43:49.807Z,101331.88
2024-02-19T02:46:16.228Z,101333.59
2024-02-19T02:48:43.464Z,101331.00
2024-02-19T02:51:09.923Z,101333.56
2024-02-19T02:53:36.294Z,101335.25
2024-02-19T02:56:02.715Z,101337.03
2024-02-19T02:58:29.252Z,101348.34
2024-02-19T03:00:55.745Z,101347.34
2024-02-19T03:03:22.208Z,101351.69
2024-02-19T03:05:48.668Z,101353.41
2024-02-19T03:08:15.057Z,101342.84
2024-02-19T03:10:41.492Z,101339.38
2024-02-19T03:13:07.971Z,101344.66
2024-02-19T03:15:34.428Z,101358.69
2024-02-19T03:18:00.894Z,101364.00
2024-02-19T03:20:29.744Z,101362.19
2024-02-19T03:22:56.140Z,101369.16
2024-02-19T03:25:22.623Z,101365.72
2024-02-19T03:27:49.275Z,101368.38
2024-02-19T03:30:15.793Z,101370.13
2024-02-19T03:32:42.451Z,101385.00
2024-02-19T03:35:08.996Z,101388.53
2024-02-19T03:37:35.586Z,101395.53
2024-02-19T03:40:02.206Z,101395.53
2024-02-19T03:42:29.741Z,101400.75
2024-02-19T03:44:57.052Z,101413.75
2024-02-19T03:47:23.486Z,101408.47
2024-02-19T03:49:49.934Z,101424.25
2024-02-19T03:52:16.585Z,101432.88
2024-02-19T03:54:43.169Z,101442.38
2024-02-19T03:57:10.389Z,101441.53
2024-02-19T03:59:36.823Z,101452.91
2024-02-19T04:02:04.007Z,101444.16
2024-02-19T04:04:30.625Z,101451.03
2024-02-19T04:06:57.708Z,101454.44
2024-02-19T04:09:24.277Z,101449.13
2024-02-19T04:11:50.868Z,101468.31
2024-02-19T04:14:17.360Z,101471.75
2024-02-19T04:16:43.855Z,101466.50
2024-02-19T04:19:10.533Z,101481.38
2024-02-19T04:21:43.109Z,101486.63
2024-02-19T04:24:09.492Z,101485.72
2024-02-19T04:26:35.859Z,101487.50
2024-02-19T04:29:02.333Z,101491.88
2024-02-19T04:31:28.740Z,101497.13
2024-02-19T04:33:55.319Z,101506.66
2024-02-19T04:36:21.840Z,101514.50
2024-02-19T04:38:48.189Z,101519.53
2024-02-19T04:41:15.100Z,101521.19
2024-02-19T04:43:41.519Z,101521.09
2024-02-19T04:46:07.969Z,101523.56
2024-02-19T04:48:37.751Z,101518.25
2024-02-19T04:51:05.436Z,101528.66
2024-02-19T04:53:31.984Z,101529.47
2024-02-19T04:56:00.709Z,101534.72
2024-02-19T04:58:31.126Z,101543.50
2024-02-19T05:00:57.569Z,101538.94
2024-02-19T05:03:24.486Z,101533.72
2024-02-19T05:05:50.974Z,101543.28
2024-02-19T05:08:17.523Z,101534.47
2024-02-19T05:10:44.031Z,101544.06
2024-02-19T05:13:10.598Z,101551.84
2024-02-19T05:15:37.296Z,101552.66
2024-02-19T05:18:04.293Z,101555.13
2024-02-19T05:20:30.793Z,101562.00
2024-02-19T05:22:57.222Z,101556.75
2024-02-19T05:25:23.654Z,101552.44
2024-02-19T05:27:50.154Z,101545.53
2024-02-19T05:30:17.508Z,101543.81
2024-02-19T05:32:44.090Z,101543.81
2024-02-19T05:35:11.016Z,101546.50
2024-02-19T05:37:37.591Z,101530.81
2024-02-19T05:40:04.174Z,101533.50
2024-02-19T05:42:30.693Z,101549.28
2024-02-19T05:44:57.092Z,101552.75
2024-02-19T05:47:23.762Z,101553.56
2024-02-19T05:49:50.469Z,101550.94
2024-02-19T05:52:17.194Z,101556.34
2024-02-19T05:54:44.490Z,101567.63
2024-02-19T05:57:11.706Z,101576.34
2024-02-19T05:59:38.118Z,101581.38
2024-02-19T06:02:04.731Z,101583.03
2024-02-19T06:04:31.345Z,101574.16
2024-02-19T06:07:00.382Z,101573.25
2024-02-19T06:09:26.992Z,101587.19
2024-02-19T06:11:53.338Z,101594.06
2024-02-19T06:14:19.750Z,101593.25
2024-02-19T06:16:46.144Z,101602.81
2024-02-19T06:19:12.659Z,101600.22
2024-02-19T06:21:39.156Z,101600.25
2024-02-19T06:24:05.832Z,101601.13
2024-02-19T06:26:32.240Z,101614.25
2024-02-19T06:28:58.717Z,101616.00
2024-02-19T06:31:28.879Z,101615.25
2024-02-19T06:33:56.307Z,101616.91
2024-02-19T06:36:22.815Z,101622.22
2024-02-19T06:38:49.288Z,101624.84
2024-02-19T06:41:15.663Z,101617.06
2024-02-19T06:43:42.014Z,101631.03
2024-02-19T06:46:09.086Z,101631.03
2024-02-19T06:48:38.169Z,101636.34
2024-02-19T06:51:04.857Z,101644.22
2024-02-19T06:53:31.280Z,101639.78
2024-02-19T06:55:58.853Z,101642.34
2024-02-19T06:58:25.601Z,101639.78
2024-02-19T07:00:52.083Z,101638.16
2024-02-19T07:03:18.537Z,101646.78
2024-02-19T07:05:44.989Z,101639.72
2024-02-19T07:08:13.169Z,101642.44
2024-02-19T07:10:39.785Z,101640.97
2024-02-19T07:13:06.299Z,101634.97
2024-02-19T07:15:32.772Z,101656.91
2024-02-19T07:17:59.210Z,101656.91
2024-02-19T07:20:25.626Z,101653.44
2024-02-19T07:22:52.042Z,101660.47
2024-02-19T07:25:21.798Z,101670.94
2024-02-19T07:27:49.076Z,101663.19
2024-02-19T07:30:15.794Z,101674.59
2024-02-19T07:32:42.275Z,101679.03
2024-02-19T07:35:08.973Z,101679.13
2024-02-19T07:37:35.460Z,101678.19
2024-02-19T07:40:03.217Z,101686.19
2024-02-19T07:42:29.705Z,101689.66
2024-02-19T07:44:56.456Z,101694.97
2024-02-19T07:47:23.131Z,101689.75
2024-02-19T07:49:49.540Z,101698.53
2024-02-19T07:52:16.011Z,101695.06
2024-02-19T07:54:42.460Z,101688.16
2024-02-19T07:57:09.002Z,101692.69
2024-02-19T07:59:35.401Z,101686.78
2024-02-19T08:02:01.945Z,101686.03
2024-02-19T08:04:28.878Z,101689.63
2024-02-19T08:06:58.488Z,101687.22
2024-02-19T08:09:27.103Z,101689.91
2024-02-19T08:11:53.662Z,101692.63
2024-02-19T08:14:20.605Z,101696.38
2024-02-19T08:16:50.452Z,101695.59
2024-02-19T08:19:17.778Z,101698.25
2024-02-19T08:21:44.679Z,101696.56
2024-02-19T08:24:11.350Z,101707.09
2024-02-19T08:26:37.703Z,101698.47
2024-02-19T08:29:05.462Z,101696.16
2024-02-19T08:31:32.722Z,101697.00
2024-02-19T08:36:47.285Z,101689.38
2024-02-19T08:39:14.045Z,101695.75
2024-02-19T08:41:40.560Z,101694.13
2024-02-19T08:44:06.941Z,101698.50
2024-02-19T08:46:33.400Z,101693.47
2024-02-19T08:48:59.975Z,101701.31
2024-02-19T08:51:26.554Z,101692.66
2024-02-19T08:53:56.683Z,101694.41
2024-02-19T08:56:26.637Z,101689.25
2024-02-19T08:58:53.060Z,101685.91
2024-02-19T09:01:19.599Z,101676.69
2024-02-19T09:03:46.184Z,101682.28
2024-02-19T09:06:12.775Z,101686.00
2024-02-19T09:08:39.233Z,101692.19
2024-02-19T09:11:05.608Z,101699.19
2024-02-19T09:13:34.161Z,101700.09
2024-02-19T09:16:00.585Z,101708.06
2024-02-19T09:18:27.898Z,101712.53
2024-02-19T09:20:54.656Z,101710.03
2024-02-19T09:23:21.031Z,101714.47
2024-02-19T09:25:47.364Z,101714.59
2024-02-19T09:28:13.777Z,101707.72
2024-02-19T09:30:40.616Z,101721.59
2024-02-19T09:33:07.225Z,101718.72
2024-02-19T09:35:36.138Z,101720.38
2024-02-19T09:38:02.488Z,101714.28
2024-02-19T09:40:42.755Z,101704.78
2024-02-19T09:43:09.890Z,101706.59
2024-02-19T09:45:38.233Z,101706.84
2024-02-19T09:48:05.382Z,101715.78
2024-02-19T09:50:32.990Z,101708.91
2024-02-19T09:53:10.000Z,101722.00
2024-02-19T09:55:37.140Z,101719.44
2024-02-19T09:58:04.376Z,101722.03
2024-02-19T10:00:31.096Z,101730.75
2024-02-19T10:02:59.112Z,101720.09
2024-02-19T10:05:25.707Z,101715.69
2024-02-19T10:07:54.534Z,101718.22
2024-02-19T10:10:22.755Z,101724.41
2024-02-19T10:12:49.282Z,101707.84
2024-02-19T10:15:16.163Z,101720.34
2024-02-19T10:17:42.597Z,101712.75
2024-02-19T10:20:11.406Z,101717.31
2024-02-19T10:22:37.864Z,101720.16
2024-02-19T10:25:08.388Z,101717.16
2024-02-19T10:27:35.694Z,101715.75
2024-02-19T10:30:02.291Z,101730.72
2024-02-19T10:32:29.070Z,101722.19
2024-02-19T10:34:55.615Z,101736.34
2024-02-19T10:37:22.399Z,101740.88
2024-02-19T10:39:50.344Z,101746.09
2024-02-19T10:42:17.266Z,101743.59
2024-02-19T10:44:43.898Z,101740.88
2024-02-19T10:47:10.827Z,101730.59
2024-02-19T10:49:37.366Z,101751.56
2024-02-19T10:52:05.655Z,101760.88
2024-02-19T10:54:32.421Z,101749.63
2024-02-19T10:57:05.638Z,101741.03
2024-02-19T10:59:32.044Z,101746.34
2024-02-19T11:02:07.121Z,101754.22
2024-02-19T11:04:33.974Z,101747.44
2024-02-19T11:07:00.600Z,101754.19
2024-02-19T11:09:34.124Z,101747.53
2024-02-19T11:12:01.778Z,101753.06
2024-02-19T11:14:31.994Z,101750.47
2024-02-19T11:16:58.513Z,101753.06
2024-02-19T11:19:25.037Z,101741.78
2024-02-19T11:22:01.491Z,101746.41
2024-02-19T11:24:30.640Z,101747.28
2024-02-19T11:26:57.117Z,101748.13
2024-02-19T11:29:33.116Z,101740.31
2024-02-19T11:32:08.342Z,101742.63
2024-02-19T11:34:43.286Z,101735.88
2024-02-19T11:37:10.284Z,101739.78
2024-02-19T11:39:37.060Z,101749.50
2024-02-19T11:42:03.715Z,101761.97
2024-02-19T11:44:30.831Z,101771.38
2024-02-19T11:46:58.200Z,101753.28
2024-02-19T11:49:25.221Z,101746.72
2024-02-19T11:52:01.147Z,101742.16
2024-02-19T11:54:35.001Z,101733.59
2024-02-19T11:57:04.888Z,101730.75
2024-02-19T11:59:31.384Z,101723.03
2024-02-19T12:01:57.951Z,101738.91
2024-02-19T12:04:27.422Z,101733.56
2024-02-19T12:06:54.650Z,101713.84
2024-02-19T12:09:21.427Z,101707.63
2024-02-19T12:11:48.557Z,101703.66
2024-02-19T12:14:15.264Z,101708.41
2024-02-19T12:16:41.685Z,101714.84
2024-02-19T12:19:11.764Z,101713.03
2024-02-19T12:21:38.894Z,101713.25
2024-02-19T12:24:06.016Z,101708.22
2024-02-19T12:26:32.434Z,101708.94
2024-02-19T12:28:58.834Z,101707.53
2024-02-19T12:31:26.166Z,101687.38
2024-02-19T12:33:52.893Z,101698.56
2024-02-19T12:36:19.591Z,101688.72
2024-02-19T12:38:47.046Z,101692.13
2024-02-19T12:41:14.359Z,101683.28
2024-02-19T12:43:42.002Z,101695.44
2024-02-19T12:46:09.130Z,101681.03
2024-02-19T12:48:36.839Z,101672.97
2024-02-19T12:51:03.854Z,101652.06
2024-02-19T12:53:30.475Z,101664.34
2024-02-19T12:55:57.147Z,101655.53
2024-02-19T12:58:27.609Z,101669.28
2024-02-19T13:00:54.476Z,101658.34
2024-02-19T13:03:21.268Z,101652.88
2024-02-19T13:05:48.094Z,101646.44
2024-02-19T13:08:16.885Z,101641.75
2024-02-19T13:10:43.263Z,101638.94
2024-02-19T13:13:13.149Z,101635.13
2024-02-19T13:15:40.066Z,101608.94
2024-02-19T13:18:07.110Z,101609.88
2024-02-19T13:20:33.609Z,101606.38
2024-02-19T13:23:00.073Z,101606.22
2024-02-19T13:25:26.523Z,101614.94
2024-02-19T13:27:53.089Z,101611.38
2024-02-19T13:30:19.546Z,101605.25
2024-02-19T13:32:48.665Z,101609.63
2024-02-19T13:35:15.482Z,101606.91
2024-02-19T13:37:42.766Z,101602.59
2024-02-19T13:40:12.012Z,101599.13
2024-02-19T13:42:39.137Z,101601.66
2024-02-19T13:45:10.188Z,101600.75
2024-02-19T13:47:45.242Z,101601.63
2024-02-19T13:50:14.806Z,101587.66
2024-02-19T13:52:41.470Z,101595.59
2024-02-19T13:55:08.281Z,101599.19
2024-02-19T13:57:34.717Z,101602.78
2024-02-19T14:00:01.206Z,101601.00
2024-02-19T14:02:27.913Z,101612.28
2024-02-19T14:04:54.661Z,101599.13
2024-02-19T14:07:21.515Z,101614.78
2024-02-19T14:09:48.003Z,101606.94
2024-02-19T14:12:14.627Z,101610.38
2024-02-19T14:14:40.993Z,101606.88
2024-02-19T14:17:11.006Z,101603.38
2024-02-19T14:19:39.155Z,101601.63
2024-02-19T14:22:05.657Z,101597.34
2024-02-19T14:24:32.064Z,101590.34
2024-02-19T14:26:58.612Z,101598.28
2024-02-19T14:29:25.041Z,101595.69
2024-02-19T14:31:52.318Z,101597.41
2024-02-19T14:34:19.193Z,101600.09
2024-02-19T14:36:53.341Z,101605.50
2024-02-19T14:39:21.610Z,101596.00
2024-02-19T14:41:48.578Z,101579.63
2024-02-19T14:44:15.056Z,101580.81
2024-02-19T14:46:50.972Z,101596.63
2024-02-19T14:49:21.213Z,101614.81
2024-02-19T14:51:47.870Z,101608.47
2024-02-19T14:54:14.353Z,101600.53
2024-02-19T14:56:42.908Z,101598.59
2024-02-19T14:59:09.386Z,101586.28
2024-02-19T15:01:35.858Z,101589.81
2024-02-19T15:04:02.424Z,101591.56
2024-02-19T15:06:28.945Z,101589.72
2024-02-19T15:08:55.830Z,101595.72
2024-02-19T15:11:22.227Z,101595.53
2024-02-19T15:13:48.645Z,101577.03
2024-02-19T15:16:15.837Z,101581.44
2024-02-19T15:18:42.456Z,101577.13
2024-02-19T15:21:08.965Z,101577.94
2024-02-19T15:23:40.360Z,101577.16
2024-02-19T15:26:08.425Z,101579.78
2024-02-19T15:28:34.845Z,101588.38
2024-02-19T15:31:01.277Z,101590.16
2024-02-19T15:33:27.754Z,101590.94
2024-02-19T15:35:55.251Z,101595.13
2024-02-19T15:38:21.702Z,101591.53
2024-02-19T15:40:48.141Z,101586.19
2024-02-19T15:43:14.547Z,101588.78
2024-02-19T15:45:44.704Z,101586.06
2024-02-19T15:48:12.166Z,101583.44
2024-02-19T15:50:39.540Z,101592.06
2024-02-19T15:53:06.882Z,101592.81
2024-02-19T15:55:33.524Z,101592.75
2024-02-19T15:58:00.000Z,101595.22
2024-02-19T16:00:26.495Z,101594.22
2024-02-19T16:02:52.860Z,101588.91
2024-02-19T16:05:19.314Z,101602.06
2024-02-19T16:07:45.759Z,101588.91
2024-02-19T16:10:14.287Z,101590.72
2024-02-19T16:12:40.885Z,101583.59
2024-02-19T16:15:08.163Z,101586.16
2024-02-19T16:17:34.620Z,101587.03
2024-02-19T16:20:01.277Z,101591.41
2024-02-19T16:22:27.864Z,101591.41
2024-02-19T16:24:54.344Z,101592.38
2024-02-19T16:27:20.859Z,101594.19
2024-02-19T16:29:47.241Z,101593.34
2024-02-19T16:32:13.704Z,101597.81
2024-02-19T16:34:41.100Z,101606.50
2024-02-19T16:37:07.486Z,101602.03
2024-02-19T16:39:33.868Z,101601.13
2024-02-19T16:42:00.371Z,101604.59
2024-02-19T16:44:26.724Z,101603.66
2024-02-19T16:46:53.203Z,101604.53
2024-02-19T16:49:19.754Z,101608.13
2024-02-19T16:51:46.481Z,101610.75
2024-02-19T16:54:13.931Z,101590.63
2024-02-19T16:56:40.347Z,101595.06
2024-02-19T16:59:06.743Z,101609.09
2024-02-19T17:01:33.531Z,101608.16
2024-02-19T17:04:00.157Z,101602.06
2024-02-19T17:06:26.976Z,101610.78
2024-02-19T17:08:53.415Z,101601.97
2024-02-19T17:11:22.653Z,101618.59
2024-02-19T17:13:49.407Z,101604.63
2024-02-19T17:16:15.997Z,101612.56
2024-02-19T17:18:42.876Z,101615.25
2024-02-19T17:21:10.984Z,101605.56
2024-02-19T17:23:37.521Z,101609.97
2024-02-19T17:26:04.785Z,101612.50
2024-02-19T17:28:31.245Z,101611.56
2024-02-19T17:30:57.865Z,101611.56
2024-02-19T17:33:24.447Z,101616.00
2024-02-19T17:35:52.346Z,101612.50
2024-02-19T17:38:22.309Z,101615.13
2024-02-19T17:40:49.858Z,101624.72
2024-02-19T17:43:16.292Z,101622.88
2024-02-19T17:45:42.709Z,101622.75
2024-02-19T17:48:11.400Z,101622.88
2024-02-19T17:50:41.804Z,101624.56
2024-02-19T17:53:08.496Z,101622.84
2024-02-19T17:55:34.911Z,101626.25
2024-02-19T17:58:01.395Z,101620.91
2024-02-19T18:00:27.792Z,101627.03
2024-02-19T18:02:54.265Z,101632.38
2024-02-19T18:05:20.779Z,101610.47
2024-02-19T18:07:47.183Z,101617.47
2024-02-19T18:10:13.976Z,101612.19
2024-02-19T18:12:40.373Z,101617.47
2024-02-19T18:15:06.993Z,101612.13
2024-02-19T18:17:33.419Z,101625.28
2024-02-19T18:20:00.091Z,101618.22
2024-02-19T18:22:26.983Z,101613.84
2024-02-19T18:24:53.668Z,101619.97
2024-02-19T18:27:20.363Z,101616.50
2024-02-19T18:29:46.813Z,101622.53
2024-02-19T18:32:16.226Z,101620.81
2024-02-19T18:34:47.543Z,101608.56
2024-02-19T18:37:14.500Z,101624.22
2024-02-19T18:39:40.934Z,101615.41
2024-02-19T18:42:09.542Z,101615.53
2024-02-19T18:44:36.065Z,101612.84
2024-02-19T18:47:04.069Z,101616.38
2024-02-19T18:49:33.005Z,101602.38
2024-02-19T18:52:00.102Z,101614.59
2024-02-19T18:54:28.204Z,101615.53
2024-02-19T18:56:56.034Z,101610.22
2024-02-19T18:59:22.480Z,101612.00
2024-02-19T19:01:49.030Z,101612.81
2024-02-19T19:04:16.988Z,101617.19
2024-02-19T19:06:43.629Z,101618.97
2024-02-19T19:09:11.501Z,101615.47
2024-02-19T19:11:40.555Z,101616.31
2024-02-19T19:14:10.775Z,101606.72
2024-02-19T19:16:37.382Z,101609.31
2024-02-19T19:19:06.141Z,101608.41
2024-02-19T19:21:37.883Z,101597.06
2024-02-19T19:24:04.892Z,101598.88
2024-02-19T19:26:32.199Z,101602.28
2024-02-19T19:28:58.744Z,101606.78
2024-02-19T19:31:25.379Z,101612.91
2024-02-19T19:33:53.536Z,101617.22
2024-02-19T19:36:20.793Z,101616.28
2024-02-19T19:38:48.568Z,101614.44
2024-02-19T19:41:15.172Z,101610.03
2024-02-19T19:43:41.593Z,101612.63
2024-02-19T19:46:08.314Z,101614.50
2024-02-19T19:48:35.079Z,101612.75
2024-02-19T19:51:01.594Z,101608.38
2024-02-19T19:53:28.083Z,101608.38
2024-02-19T19:55:56.114Z,101612.72
2024-02-19T19:58:31.226Z,101616.16
2024-02-19T20:00:59.771Z,101619.69
2024-02-19T20:03:26.844Z,101618.88
2024-02-19T20:05:53.656Z,101622.31
2024-02-19T20:08:20.303Z,101618.75
2024-02-19T20:10:46.821Z,101625.78
2024-02-19T20:13:13.453Z,101622.91
2024-02-19T20:15:39.897Z,101622.91
2024-02-19T20:18:06.608Z,101614.97
2024-02-19T20:20:33.081Z,101616.69
2024-02-19T20:23:00.006Z,101612.25
2024-02-19T20:25:26.503Z,101610.41
2024-02-19T20:27:53.089Z,101602.47
2024-02-19T20:30:19.572Z,101604.25
2024-02-19T20:32:46.165Z,101606.91
2024-02-19T20:35:12.904Z,101606.06
2024-02-19T20:37:40.462Z,101606.78
2024-02-19T20:40:07.550Z,101612.09
2024-02-19T20:42:35.789Z,101618.19
2024-02-19T20:45:02.254Z,101613.81
2024-02-19T20:47:30.022Z,101619.16
2024-02-19T20:49:58.537Z,101612.13
2024-02-19T20:52:25.676Z,101612.13
2024-02-19T20:54:53.294Z,101615.59
2024-02-19T20:57:19.836Z,101615.59
2024-02-19T20:59:46.299Z,101614.59
2024-02-19T21:02:13.343Z,101612.00
2024-02-19T21:04:39.950Z,101605.03
2024-02-19T21:07:06.594Z,101611.19
2024-02-19T21:09:33.147Z,101618.19
2024-02-19T21:11:59.659Z,101610.28
2024-02-19T21:14:26.699Z,101619.88
2024-02-19T21:16:53.269Z,101615.47
2024-02-19T21:19:21.018Z,101621.53
2024-02-19T21:21:47.820Z,101610.16
2024-02-19T21:24:14.360Z,101623.19
2024-02-19T21:26:42.721Z,101610.03
2024-02-19T21:29:09.466Z,101617.03
2024-02-19T21:31:35.992Z,101617.06
2024-02-19T21:34:02.609Z,101618.78
2024-02-19T21:36:29.280Z,101622.28
2024-02-19T21:38:55.863Z,101617.06
2024-02-19T21:41:22.387Z,101623.19
2024-02-19T21:43:48.781Z,101614.44
2024-02-19T21:46:15.259Z,101616.19
2024-02-19T21:48:42.164Z,101627.63
2024-02-19T21:51:08.691Z,101622.38
2024-02-19T21:53:35.187Z,101620.56
2024-02-19T21:56:02.719Z,101619.59
2024-02-19T21:58:29.150Z,101627.53
2024-02-19T22:00:55.809Z,101623.13
2024-02-19T22:03:24.000Z,101630.09
2024-02-19T22:05:50.967Z,101624.88
2024-02-19T22:08:17.419Z,101625.72
2024-02-19T22:10:44.045Z,101616.97
2024-02-19T22:13:10.562Z,101616.13
2024-02-19T22:15:36.952Z,101615.22
2024-02-19T22:18:03.897Z,101612.53
2024-02-19T22:20:32.219Z,101611.59
2024-02-19T22:22:58.640Z,101614.13
2024-02-19T22:25:25.125Z,101612.31
2024-02-19T22:27:53.941Z,101615.81
2024-02-19T22:30:20.471Z,101620.16
2024-02-19T22:32:46.916Z,101608.75
2024-02-19T22:35:13.706Z,101621.94
2024-02-19T22:37:40.321Z,101621.88
2024-02-19T22:40:07.164Z,101619.25
2024-02-19T22:42:33.614Z,101621.84
2024-02-19T22:45:00.928Z,101613.13
2024-02-19T22:47:29.082Z,101621.81
2024-02-19T22:49:56.059Z,101622.66
2024-02-19T22:52:22.822Z,101616.53
2024-02-19T22:54:49.876Z,101616.53
2024-02-19T22:57:16.368Z,101611.28
2024-02-19T22:59:44.523Z,101622.63
2024-02-19T23:02:11.083Z,101612.06
2024-02-19T23:04:38.013Z,101625.25
2024-02-19T23:07:04.696Z,101626.78
2024-02-19T23:09:31.233Z,101632.88
2024-02-19T23:11:57.645Z,101633.72
2024-02-19T23:14:24.041Z,101619.66
2024-02-19T23:16:50.632Z,101627.47
2024-02-19T23:19:17.149Z,101626.59
2024-02-19T23:21:43.770Z,101616.94
2024-02-19T23:24:10.160Z,101623.94
2024-02-19T23:26:36.553Z,101632.59
2024-02-19T23:29:03.000Z,101626.53
2024-02-19T23:31:29.821Z,101618.75
2024-02-19T23:33:56.431Z,101617.88
2024-02-19T23:36:23.060Z,101628.38
2024-02-19T23:38:49.460Z,101626.59
2024-02-19T23:41:15.895Z,101637.03
2024-02-19T23:43:43.745Z,101633.59
2024-02-19T23:46:11.173Z,101630.00
2024-02-19T23:48:40.451Z,101638.69
2024-02-19T23:51:06.929Z,101636.84
2024-02-19T23:53:33.817Z,101640.25
2024-02-19T23:56:00.309Z,101639.31
2024-02-19T23:58:26.798Z,101636.69
